首页
METAR-TAF:

METAR-TAF

机场 :

巴林国际机场

巴林, 巴林

纬度: 26-16N, 经度: 050-39E, 海拔: 2米

当前天气观测

该预报发布于14分钟前的08:30 UTC
风速17节,风向西北
温度 38°C
湿度 42%
气压 997 hPa
能见度10公里或以上
1500米以下无云,无积雨云

METAR: OBBI 140830Z 32017KT CAVOK 38/23 Q0997 NOSIG

时间: 11:44 (08:44 UTC)

预报

该预报发布于3小时和44分钟前的05:00 UTC
预报有效从14日的 06点(UTC)到 15日的 12点(UTC)
风速17节,风向北转西北,有时为27节阵风
能见度10公里或以上
1500米以下无云,无积雨云
成为
从 14日的 14点(UTC)到 14日的 16点(UTC)
风速10节,风向西北
成为
从 15日的 03点(UTC)到 15日的 05点(UTC)
风速15节,风向北转西北,有时为25节阵风

TAF: OBBI 140500Z 1406/1512 33017G27KT CAVOK BECMG 1414/1416 31010KT BECMG 1503/1505 33015G25KT

超过4000个机场的气象观测和天气预报(METAR&TAF报告)。

可查询的气象台以黄色和红色小点在地图上表示。

将鼠标移到小点上方,可查看气象台名称。

然后点击查看天气观测和预报。

如需切换地图:点击带黑十字的绿色按钮放大地图;点击带横线的绿色按钮缩小地图;或者点击绿色箭头查看邻近地区的地图。


METAR-TAF: